createdAt,value
2023-04-22T00:01:02.417Z,11.80
2023-04-22T00:03:31.502Z,11.80
2023-04-22T00:06:00.396Z,11.88
2023-04-22T00:08:29.202Z,11.90
2023-04-22T00:10:57.711Z,11.90
2023-04-22T00:13:26.184Z,11.90
2023-04-22T00:15:54.701Z,11.90
2023-04-22T00:18:23.079Z,11.80
2023-04-22T00:20:51.508Z,11.70
2023-04-22T00:23:19.883Z,11.70
2023-04-22T00:25:48.364Z,11.80
2023-04-22T00:28:16.815Z,11.80
2023-04-22T00:30:45.222Z,11.80
2023-04-22T00:33:14.003Z,11.80
2023-04-22T00:35:42.354Z,11.80
2023-04-22T00:38:11.335Z,11.80
2023-04-22T00:40:39.823Z,11.80
2023-04-22T00:43:09.355Z,11.80
2023-04-22T00:45:38.230Z,11.70
2023-04-22T00:48:07.683Z,11.70
2023-04-22T00:50:36.208Z,11.62
2023-04-22T00:53:04.567Z,11.66
2023-04-22T00:55:33.184Z,11.60
2023-04-22T00:58:03.944Z,11.60
2023-04-22T01:00:32.756Z,11.60
2023-04-22T01:03:01.561Z,11.50
2023-04-22T01:05:32.481Z,11.50
2023-04-22T01:08:01.121Z,11.50
2023-04-22T01:10:29.884Z,11.40
2023-04-22T01:12:58.292Z,11.40
2023-04-22T01:15:28.854Z,11.40
2023-04-22T01:17:58.518Z,11.36
2023-04-22T01:20:31.441Z,11.30
2023-04-22T01:23:04.609Z,11.30
2023-04-22T01:25:33.770Z,11.34
2023-04-22T01:28:03.328Z,11.38
2023-04-22T01:30:32.986Z,11.30
2023-04-22T01:33:01.650Z,11.30
2023-04-22T01:35:37.142Z,11.30
2023-04-22T01:38:11.350Z,11.30
2023-04-22T01:40:40.263Z,11.30
2023-04-22T01:43:08.628Z,11.30
2023-04-22T01:45:37.224Z,11.26
2023-04-22T01:48:07.403Z,11.22
2023-04-22T01:50:36.069Z,11.20
2023-04-22T01:53:04.469Z,11.20
2023-04-22T01:55:36.301Z,11.14
2023-04-22T01:58:05.832Z,11.00
2023-04-22T02:00:34.421Z,11.00
2023-04-22T02:03:02.960Z,11.00
2023-04-22T02:05:31.562Z,11.00
2023-04-22T02:08:00.044Z,11.00
2023-04-22T02:10:28.524Z,11.00
2023-04-22T02:12:57.008Z,11.00
2023-04-22T02:15:25.627Z,11.00
2023-04-22T02:17:55.558Z,11.02
2023-04-22T02:20:24.135Z,11.08
2023-04-22T02:22:52.685Z,11.10
2023-04-22T02:25:21.362Z,11.10
2023-04-22T02:27:51.368Z,11.10
2023-04-22T02:30:20.235Z,11.10
2023-04-22T02:32:48.740Z,11.06
2023-04-22T02:35:17.175Z,11.00
2023-04-22T02:37:45.552Z,11.00
2023-04-22T02:40:13.949Z,10.90
2023-04-22T02:42:42.392Z,10.90
2023-04-22T02:45:11.471Z,10.90
2023-04-22T02:47:40.073Z,10.92
2023-04-22T02:50:08.883Z,10.92
2023-04-22T02:52:37.371Z,10.90
2023-04-22T02:55:06.791Z,10.90
2023-04-22T02:57:35.198Z,10.90
2023-04-22T03:00:04.977Z,10.90
2023-04-22T03:02:33.668Z,10.78
2023-04-22T03:05:28.344Z,10.70
2023-04-22T03:07:56.857Z,10.76
2023-04-22T03:10:25.253Z,10.80
2023-04-22T03:12:53.653Z,10.80
2023-04-22T03:15:22.372Z,10.76
2023-04-22T03:17:50.830Z,10.72
2023-04-22T03:20:20.991Z,10.70
2023-04-22T03:22:49.537Z,10.70
2023-04-22T03:25:18.168Z,10.70
2023-04-22T03:27:51.342Z,10.70
2023-04-22T03:30:19.850Z,10.70
2023-04-22T03:32:48.536Z,10.70
2023-04-22T03:35:22.675Z,10.70
2023-04-22T03:37:52.073Z,10.70
2023-04-22T03:40:24.717Z,10.70
2023-04-22T03:42:53.368Z,10.64
2023-04-22T03:45:22.385Z,10.68
2023-04-22T03:48:10.802Z,10.64
2023-04-22T03:50:42.991Z,10.60
2023-04-22T03:53:11.499Z,10.60
2023-04-22T03:55:40.125Z,10.60
2023-04-22T03:58:08.598Z,10.60
2023-04-22T04:00:37.009Z,10.60
2023-04-22T04:03:11.284Z,10.64
2023-04-22T04:05:40.807Z,10.64
2023-04-22T04:08:10.149Z,10.64
2023-04-22T04:10:38.796Z,10.68
2023-04-22T04:13:07.395Z,10.70
2023-04-22T04:15:45.308Z,10.70
2023-04-22T04:18:15.227Z,10.70
2023-04-22T04:20:43.594Z,10.70
2023-04-22T04:23:12.038Z,10.70
2023-04-22T04:25:43.040Z,10.70
2023-04-22T04:28:14.512Z,10.70
2023-04-22T04:30:43.134Z,10.72
2023-04-22T04:33:12.495Z,10.78
2023-04-22T04:35:43.465Z,10.80
2023-04-22T04:38:13.045Z,10.80
2023-04-22T04:40:45.664Z,10.86
2023-04-22T04:43:21.417Z,10.88
2023-04-22T04:45:54.313Z,10.88
2023-04-22T04:48:29.558Z,10.88
2023-04-22T04:51:04.614Z,10.88
2023-04-22T04:53:34.144Z,10.90
2023-04-22T04:56:02.800Z,10.90
2023-04-22T04:58:31.360Z,10.90
2023-04-22T05:01:39.061Z,10.90
2023-04-22T05:04:10.038Z,10.80
2023-04-22T05:06:41.008Z,10.80
2023-04-22T05:09:10.159Z,10.80
2023-04-22T05:11:39.097Z,10.76
2023-04-22T05:14:13.272Z,10.80
2023-04-22T05:16:43.328Z,10.80
2023-04-22T05:19:11.822Z,10.86
2023-04-22T05:21:40.435Z,10.90
2023-04-22T05:24:08.859Z,11.00
2023-04-22T05:26:37.950Z,11.18
2023-04-22T05:29:11.367Z,11.36
2023-04-22T05:31:40.352Z,11.50
2023-04-22T05:34:08.924Z,11.60
2023-04-22T05:36:38.988Z,11.70
2023-04-22T05:39:07.514Z,11.80
2023-04-22T05:41:36.218Z,11.84
2023-04-22T05:44:04.922Z,11.88
2023-04-22T05:46:33.424Z,11.90
2023-04-22T05:49:01.988Z,11.90
2023-04-22T05:51:50.641Z,11.90
2023-04-22T05:54:20.594Z,12.00
2023-04-22T05:56:49.476Z,12.08
2023-04-22T05:59:19.599Z,12.20
2023-04-22T06:01:50.286Z,12.30
2023-04-22T06:04:21.747Z,12.40
2023-04-22T06:06:54.116Z,12.50
2023-04-22T06:09:22.576Z,12.62
2023-04-22T06:11:51.125Z,12.76
2023-04-22T06:14:19.617Z,12.90
2023-04-22T06:16:50.553Z,12.90
2023-04-22T06:19:18.929Z,12.90
2023-04-22T06:21:47.635Z,13.00
2023-04-22T06:24:18.001Z,13.10
2023-04-22T06:26:46.463Z,13.20
2023-04-22T06:29:15.076Z,13.26
2023-04-22T06:31:44.200Z,13.40
2023-04-22T06:34:12.840Z,13.50
2023-04-22T06:36:41.441Z,13.50
2023-04-22T06:39:11.348Z,13.50
2023-04-22T06:41:52.004Z,13.60
2023-04-22T06:44:33.427Z,13.72
2023-04-22T06:47:27.976Z,13.82
2023-04-22T06:50:16.575Z,14.00
2023-04-22T06:52:53.525Z,14.10
2023-04-22T06:55:21.965Z,14.20
2023-04-22T06:57:51.588Z,14.30
2023-04-22T07:00:20.049Z,14.30
2023-04-22T07:02:48.613Z,14.30
2023-04-22T07:05:17.435Z,14.40
2023-04-22T07:07:47.461Z,14.40
2023-04-22T07:10:20.009Z,14.40
2023-04-22T07:13:08.391Z,14.40
2023-04-22T07:15:37.045Z,14.44
2023-04-22T07:18:05.535Z,14.50
2023-04-22T07:20:33.952Z,14.50
2023-04-22T07:23:02.469Z,14.68
2023-04-22T07:25:31.078Z,14.88
2023-04-22T07:27:59.507Z,15.00
2023-04-22T07:30:28.013Z,15.14
2023-04-22T07:32:56.544Z,15.24
2023-04-22T07:35:25.013Z,15.30
2023-04-22T07:37:53.427Z,15.40
2023-04-22T07:40:21.903Z,15.50
2023-04-22T07:42:50.391Z,15.54
2023-04-22T07:45:19.799Z,15.60
2023-04-22T07:47:48.219Z,15.60
2023-04-22T07:50:16.704Z,15.70
2023-04-22T07:52:45.051Z,15.80
2023-04-22T07:55:13.888Z,15.88
2023-04-22T07:57:42.305Z,15.90
2023-04-22T08:00:11.459Z,16.00
2023-04-22T08:02:44.358Z,16.10
2023-04-22T08:05:13.253Z,16.20
2023-04-22T08:07:42.508Z,16.30
2023-04-22T08:10:11.032Z,16.40
2023-04-22T08:12:39.430Z,16.50
2023-04-22T08:15:08.292Z,16.60
2023-04-22T08:17:36.858Z,16.60
2023-04-22T08:20:08.044Z,16.60
2023-04-22T08:22:36.950Z,16.60
2023-04-22T08:25:07.956Z,16.70
2023-04-22T08:27:36.609Z,16.80
2023-04-22T08:30:06.930Z,16.90
2023-04-22T08:32:36.079Z,17.00
2023-04-22T08:35:05.685Z,17.10
2023-04-22T08:37:34.909Z,17.10
2023-04-22T08:40:04.250Z,17.10
2023-04-22T08:42:33.386Z,17.10
2023-04-22T08:45:04.667Z,17.04
2023-04-22T08:47:34.228Z,17.00
2023-04-22T08:50:04.410Z,16.90
2023-04-22T08:52:33.342Z,16.80
2023-04-22T08:55:02.322Z,16.70
2023-04-22T08:57:31.967Z,16.60
2023-04-22T09:00:00.853Z,16.50
2023-04-22T09:02:30.528Z,16.52
2023-04-22T09:05:02.804Z,16.66
2023-04-22T09:07:32.770Z,16.80
2023-04-22T09:10:01.224Z,16.80
2023-04-22T09:12:29.731Z,16.70
2023-04-22T09:14:58.266Z,16.66
2023-04-22T09:17:32.344Z,16.60
2023-04-22T09:20:02.289Z,16.70
2023-04-22T09:22:46.972Z,16.70
2023-04-22T09:25:37.791Z,16.70
2023-04-22T09:28:06.417Z,16.60
2023-04-22T09:30:38.009Z,16.60
2023-04-22T09:33:08.140Z,16.60
2023-04-22T09:35:40.845Z,16.50
2023-04-22T09:38:13.400Z,16.50
2023-04-22T09:40:44.400Z,16.50
2023-04-22T09:43:13.080Z,16.50
2023-04-22T09:45:43.327Z,16.70
2023-04-22T09:48:14.680Z,16.70
2023-04-22T09:50:50.106Z,16.80
2023-04-22T09:53:20.850Z,16.80
2023-04-22T09:55:51.692Z,16.70
2023-04-22T09:58:24.146Z,16.70
2023-04-22T10:00:59.676Z,16.70
2023-04-22T10:03:29.066Z,16.80
2023-04-22T10:05:58.399Z,16.80
2023-04-22T10:08:27.488Z,16.80
2023-04-22T10:10:56.059Z,16.88
2023-04-22T10:13:24.456Z,16.90
2023-04-22T10:15:55.857Z,16.94
2023-04-22T10:18:29.039Z,17.00
2023-04-22T10:20:59.372Z,17.06
2023-04-22T10:23:33.039Z,17.12
2023-04-22T10:26:01.603Z,17.20
2023-04-22T10:28:30.978Z,17.20
2023-04-22T10:30:59.657Z,17.16
2023-04-22T10:33:29.135Z,17.10
2023-04-22T10:36:20.302Z,17.04
2023-04-22T10:38:54.806Z,17.12
2023-04-22T10:41:29.790Z,17.20
2023-04-22T10:44:00.573Z,17.30
2023-04-22T10:46:35.882Z,17.30
2023-04-22T10:49:12.953Z,17.40
2023-04-22T10:51:42.085Z,17.40
2023-04-22T10:54:28.081Z,17.48
2023-04-22T10:57:06.178Z,17.50
2023-04-22T10:59:42.200Z,17.60
2023-04-22T11:02:13.439Z,17.60
2023-04-22T11:04:42.921Z,17.60
2023-04-22T11:07:27.362Z,17.68
2023-04-22T11:10:07.982Z,17.70
2023-04-22T11:12:39.389Z,17.70
2023-04-22T11:15:15.933Z,17.68
2023-04-22T11:17:48.858Z,17.74
2023-04-22T11:20:18.658Z,17.80
2023-04-22T11:22:55.839Z,17.90
2023-04-22T11:25:26.381Z,17.90
2023-04-22T11:27:57.834Z,17.90
2023-04-22T11:30:28.347Z,17.82
2023-04-22T11:33:00.167Z,17.74
2023-04-22T11:35:31.255Z,17.70
2023-04-22T11:38:02.021Z,17.60
2023-04-22T11:40:40.199Z,17.50
2023-04-22T11:43:11.114Z,17.40
2023-04-22T11:45:40.579Z,17.32
2023-04-22T11:48:11.325Z,17.30
2023-04-22T11:50:42.489Z,17.30
2023-04-22T11:53:16.639Z,17.30
2023-04-22T11:55:47.223Z,17.20
2023-04-22T11:58:18.491Z,17.10
2023-04-22T12:00:49.984Z,17.00
2023-04-22T12:03:21.670Z,16.90
2023-04-22T12:05:57.694Z,16.80
2023-04-22T12:08:31.819Z,16.70
2023-04-22T12:11:04.043Z,16.38
2023-04-22T12:13:38.654Z,16.02
2023-04-22T12:16:12.258Z,15.70
2023-04-22T12:18:56.572Z,15.40
2023-04-22T12:21:28.663Z,15.20
2023-04-22T12:24:05.272Z,15.10
2023-04-22T12:39:41.985Z,14.90
2023-04-22T12:42:09.293Z,14.94
2023-04-22T12:44:36.743Z,14.96
2023-04-22T12:47:04.178Z,15.00
2023-04-22T12:49:31.290Z,14.98
2023-04-22T12:51:58.271Z,14.94
2023-04-22T12:54:25.435Z,14.90
2023-04-22T12:56:52.619Z,14.90
2023-04-22T12:59:19.674Z,14.90
2023-04-22T13:01:46.679Z,14.94
2023-04-22T13:04:13.718Z,15.00
2023-04-22T13:06:44.128Z,15.00
2023-04-22T13:09:12.486Z,15.00
2023-04-22T13:11:39.553Z,15.00
2023-04-22T13:14:06.667Z,15.02
2023-04-22T13:16:33.840Z,15.10
2023-04-22T13:19:01.246Z,15.10
2023-04-22T13:21:29.025Z,15.10
2023-04-22T13:23:56.183Z,15.10
2023-04-22T13:26:23.352Z,15.10
2023-04-22T13:28:50.524Z,15.10
2023-04-22T13:31:17.677Z,15.10
2023-04-22T13:33:46.719Z,15.10
2023-04-22T13:36:13.910Z,15.10
2023-04-22T13:38:41.018Z,15.10
2023-04-22T13:41:08.087Z,15.10
2023-04-22T13:43:35.200Z,15.10
2023-04-22T13:46:02.517Z,15.18
2023-04-22T13:48:29.662Z,15.16
2023-04-22T13:50:56.726Z,15.20
2023-04-22T13:53:23.808Z,15.20
2023-04-22T13:55:53.509Z,15.20
2023-04-22T13:58:20.621Z,15.20
2023-04-22T14:00:47.857Z,15.28
2023-04-22T14:03:14.933Z,15.30
2023-04-22T14:05:42.244Z,15.30
2023-04-22T14:08:09.559Z,15.36
2023-04-22T14:10:36.643Z,15.40
2023-04-22T14:13:03.723Z,15.40
2023-04-22T14:15:30.812Z,15.40
2023-04-22T14:17:57.946Z,15.40
2023-04-22T14:20:25.010Z,15.40
2023-04-22T14:22:52.072Z,15.40
2023-04-22T14:25:19.274Z,15.50
2023-04-22T14:27:46.406Z,15.50
2023-04-22T14:30:14.378Z,15.50
2023-04-22T14:32:41.623Z,15.58
2023-04-22T14:35:08.918Z,15.54
2023-04-22T14:37:36.112Z,15.52
2023-04-22T14:40:03.853Z,15.54
2023-04-22T14:42:31.026Z,15.50
2023-04-22T14:44:58.142Z,15.58
2023-04-22T14:47:25.240Z,15.52
2023-04-22T14:49:52.308Z,15.50
2023-04-22T14:52:19.448Z,15.50
2023-04-22T14:54:47.369Z,15.50
2023-04-22T14:57:15.197Z,15.48
2023-04-22T14:59:42.524Z,15.42
2023-04-22T15:02:17.106Z,15.40
2023-04-22T15:04:44.510Z,15.40
2023-04-22T15:07:11.849Z,15.40
2023-04-22T15:09:39.354Z,15.40
2023-04-22T15:12:06.860Z,15.40
2023-04-22T15:14:35.186Z,15.30
2023-04-22T15:17:02.982Z,15.22
2023-04-22T15:19:30.156Z,15.20
2023-04-22T15:21:57.400Z,15.18
2023-04-22T15:24:24.506Z,15.10
2023-04-22T15:26:53.112Z,15.10
2023-04-22T15:29:20.687Z,15.00
2023-04-22T15:31:47.810Z,15.00
2023-04-22T15:34:15.415Z,14.90
2023-04-22T15:36:42.465Z,14.90
2023-04-22T15:39:10.248Z,14.90
2023-04-22T15:41:37.410Z,14.80
2023-04-22T15:44:06.484Z,14.78
2023-04-22T15:46:35.259Z,14.70
2023-04-22T15:49:03.482Z,14.70
2023-04-22T15:51:30.955Z,14.70
2023-04-22T15:53:58.123Z,14.62
2023-04-22T15:56:25.437Z,14.60
2023-04-22T15:58:52.576Z,14.60
2023-04-22T16:01:20.218Z,14.60
2023-04-22T16:03:48.852Z,14.60
2023-04-22T16:06:17.673Z,14.60
2023-04-22T16:08:45.076Z,14.60
2023-04-22T16:11:13.918Z,14.60
2023-04-22T16:13:41.336Z,14.60
2023-04-22T16:16:09.025Z,14.62
2023-04-22T16:18:36.195Z,14.70
2023-04-22T16:21:04.035Z,14.70
2023-04-22T16:23:31.919Z,14.70
2023-04-22T16:25:59.028Z,14.70
2023-04-22T16:28:26.157Z,14.70
2023-04-22T16:30:53.246Z,14.74
2023-04-22T16:33:20.378Z,14.76
2023-04-22T16:35:47.402Z,14.80
2023-04-22T16:38:14.615Z,14.80
2023-04-22T16:40:41.782Z,14.78
2023-04-22T16:43:09.651Z,14.78
2023-04-22T16:45:36.776Z,14.70
2023-04-22T16:48:03.877Z,14.70
2023-04-22T16:50:31.487Z,14.60
2023-04-22T16:52:58.491Z,14.60
2023-04-22T16:55:25.474Z,14.60
2023-04-22T16:57:52.552Z,14.56
2023-04-22T17:00:20.550Z,14.52
2023-04-22T17:02:47.685Z,14.50
2023-04-22T17:05:15.071Z,14.50
2023-04-22T17:07:42.191Z,14.50
2023-04-22T17:10:09.361Z,14.50
2023-04-22T17:12:36.368Z,14.50
2023-04-22T17:15:03.715Z,14.40
2023-04-22T17:17:30.759Z,14.40
2023-04-22T17:19:57.913Z,14.30
2023-04-22T17:22:25.101Z,14.30
2023-04-22T17:24:52.247Z,14.30
2023-04-22T17:27:19.443Z,14.30
2023-04-22T17:29:49.598Z,14.30
2023-04-22T17:32:16.856Z,14.30
2023-04-22T17:34:43.975Z,14.20
2023-04-22T17:37:10.937Z,14.10
2023-04-22T17:39:39.881Z,14.10
2023-04-22T17:42:07.108Z,14.12
2023-04-22T17:44:34.209Z,14.20
2023-04-22T17:47:01.293Z,14.20
2023-04-22T17:49:28.533Z,14.20
2023-04-22T17:51:55.646Z,14.28
2023-04-22T17:54:23.082Z,14.24
2023-04-22T17:56:50.410Z,14.20
2023-04-22T17:59:18.225Z,14.24
2023-04-22T18:01:45.552Z,14.20
2023-04-22T18:04:12.702Z,14.20
2023-04-22T18:06:39.902Z,14.20
2023-04-22T18:09:08.003Z,14.20
2023-04-22T18:11:35.114Z,14.20
2023-04-22T18:14:02.151Z,14.14
2023-04-22T18:16:29.340Z,14.10
2023-04-22T18:18:57.444Z,14.10
2023-04-22T18:21:24.602Z,14.00
2023-04-22T18:23:52.763Z,14.00
2023-04-22T18:26:19.740Z,13.90
2023-04-22T18:28:46.815Z,13.90
2023-04-22T18:31:14.658Z,13.90
2023-04-22T18:33:41.669Z,13.90
2023-04-22T18:36:08.960Z,13.90
2023-04-22T18:38:38.073Z,13.90
2023-04-22T18:41:05.368Z,13.90
2023-04-22T18:43:32.419Z,13.90
2023-04-22T18:45:59.421Z,13.90
2023-04-22T18:48:26.464Z,13.90
2023-04-22T18:50:53.622Z,13.90
2023-04-22T18:53:20.600Z,13.82
2023-04-22T18:55:47.861Z,13.82
2023-04-22T18:58:14.902Z,13.88
2023-04-22T19:00:42.054Z,13.90
2023-04-22T19:03:09.194Z,13.90
2023-04-22T19:05:37.978Z,13.86
2023-04-22T19:08:05.090Z,13.82
2023-04-22T19:10:32.450Z,13.80
2023-04-22T19:12:59.531Z,13.84
2023-04-22T19:15:26.698Z,13.86
2023-04-22T19:17:54.349Z,13.86
2023-04-22T19:20:21.511Z,13.90
2023-04-22T19:22:49.040Z,13.80
2023-04-22T19:25:18.540Z,13.80
2023-04-22T19:27:45.708Z,13.80
2023-04-22T19:30:14.417Z,13.80
2023-04-22T19:32:41.723Z,13.70
2023-04-22T19:35:12.029Z,13.60
2023-04-22T19:37:39.077Z,13.60
2023-04-22T19:40:06.939Z,13.60
2023-04-22T19:42:34.180Z,13.60
2023-04-22T19:45:01.161Z,13.60
2023-04-22T19:47:28.365Z,13.60
2023-04-22T19:49:56.111Z,13.60
2023-04-22T19:52:24.376Z,13.60
2023-04-22T19:54:55.723Z,13.60
2023-04-22T19:57:23.611Z,13.50
2023-04-22T19:59:51.510Z,13.56
2023-04-22T20:02:18.758Z,13.60
2023-04-22T20:04:46.029Z,13.60
2023-04-22T20:07:14.244Z,13.60
2023-04-22T20:09:43.007Z,13.56
2023-04-22T20:12:10.610Z,13.50
2023-04-22T20:14:38.568Z,13.44
2023-04-22T20:17:05.727Z,13.34
2023-04-22T20:19:33.648Z,13.30
2023-04-22T20:22:03.988Z,13.30
2023-04-22T20:24:36.478Z,13.30
2023-04-22T20:27:04.254Z,13.22
2023-04-22T20:29:32.188Z,13.22
2023-04-22T20:31:59.380Z,13.20
2023-04-22T20:36:06.209Z,13.20
2023-04-22T20:38:38.046Z,13.20
2023-04-22T20:41:07.499Z,13.20
2023-04-22T20:43:36.839Z,13.20
2023-04-22T20:46:05.490Z,13.12
2023-04-22T20:48:34.054Z,13.10
2023-04-22T20:51:02.453Z,13.10
2023-04-22T20:53:31.069Z,13.10
2023-04-22T20:55:59.474Z,13.10
2023-04-22T20:58:28.552Z,13.06
2023-04-22T21:00:57.000Z,13.10
2023-04-22T21:03:27.779Z,13.08
2023-04-22T21:05:57.697Z,13.10
2023-04-22T21:08:27.391Z,13.10
2023-04-22T21:10:57.149Z,13.10
2023-04-22T21:13:25.856Z,13.00
2023-04-22T21:16:03.904Z,13.00
2023-04-22T21:18:33.781Z,13.00
2023-04-22T21:21:07.687Z,12.90
2023-04-22T21:23:36.623Z,12.90
2023-04-22T21:26:05.582Z,12.88
2023-04-22T21:28:34.330Z,12.80
2023-04-22T21:31:03.365Z,12.70
2023-04-22T21:33:33.270Z,12.70
2023-04-22T21:36:01.751Z,12.60
2023-04-22T21:38:30.257Z,12.58
2023-04-22T21:40:58.622Z,12.60
2023-04-22T21:43:27.034Z,12.60
2023-04-22T21:45:55.584Z,12.60
2023-04-22T21:48:24.008Z,12.60
2023-04-22T21:50:52.565Z,12.60
2023-04-22T21:53:21.091Z,12.54
2023-04-22T21:55:49.492Z,12.50
2023-04-22T21:58:17.869Z,12.40
2023-04-22T22:00:46.210Z,12.40
2023-04-22T22:03:14.732Z,12.40
2023-04-22T22:05:43.357Z,12.40
2023-04-22T22:08:11.885Z,12.38
2023-04-22T22:10:40.420Z,12.40
2023-04-22T22:13:09.346Z,12.38
2023-04-22T22:15:37.683Z,12.30
2023-04-22T22:18:07.603Z,12.30
2023-04-22T22:20:37.004Z,12.34
2023-04-22T22:23:05.529Z,12.32
2023-04-22T22:25:33.968Z,12.30
2023-04-22T22:28:02.465Z,12.30
2023-04-22T22:30:31.481Z,12.30
2023-04-22T22:32:59.916Z,12.30
2023-04-22T22:35:28.386Z,12.28
2023-04-22T22:37:56.785Z,12.30
2023-04-22T22:40:25.490Z,12.28
2023-04-22T22:42:53.880Z,12.28
2023-04-22T22:45:22.353Z,12.20
2023-04-22T22:47:50.994Z,12.20
2023-04-22T22:50:22.150Z,12.10
2023-04-22T22:52:50.814Z,12.10
2023-04-22T22:55:19.400Z,12.10
2023-04-22T22:57:47.817Z,12.10
2023-04-22T23:00:16.249Z,12.00
2023-04-22T23:02:45.108Z,11.92
2023-04-22T23:05:13.701Z,11.88
2023-04-22T23:07:42.046Z,11.80
2023-04-22T23:10:10.792Z,11.80
2023-04-22T23:12:39.183Z,11.80
2023-04-22T23:15:08.038Z,11.70
2023-04-22T23:17:36.988Z,11.70
2023-04-22T23:20:07.597Z,11.70
2023-04-22T23:22:40.912Z,11.70
2023-04-22T23:25:10.204Z,11.70
2023-04-22T23:27:38.889Z,11.70
2023-04-22T23:30:07.998Z,11.60
2023-04-22T23:32:40.173Z,11.50
2023-04-22T23:35:11.176Z,11.50
2023-04-22T23:37:43.773Z,11.50
2023-04-22T23:40:13.547Z,11.40
2023-04-22T23:42:42.057Z,11.32
2023-04-22T23:45:11.132Z,11.20
2023-04-22T23:47:39.937Z,11.20
2023-04-22T23:50:09.215Z,11.18
2023-04-22T23:52:41.447Z,11.20
2023-04-22T23:55:11.842Z,11.18
2023-04-22T23:57:40.549Z,11.18
